Time;durP1;ratioP1;P1;durP2;ratioP2;P2;SDS_P1;SDS_P2;PMS_P1;PMS_P2;Temp;Humidity;BMP_temperature;BMP_pressure;BME280_temperature;BME280_humidity;BME280_pressure;Samples;Min_cycle;Max_cycle;Signal;HPM_P1;HPM_P2
2022/10/30 00:00:51;;;;;;;;;;;;;;;;;;5077538;28;19908;-50
2022/10/30 00:03:17;;;;;;;;;;;;;;;;;;5064475;28;19904;-52
2022/10/30 00:05:43;;;;;;;;;;;;;;;;;;5068501;28;19966;-53
2022/10/30 05:12:40;;;;;;;;;;;;;;;;;;5075483;28;19923;-52
2022/10/30 05:15:05;;;;;;;;;;;;;;;;;;5096870;28;19916;-51
2022/10/30 05:17:31;;;;;;;;;;;;;;;;;;5092261;28;19927;-51
2022/10/30 05:19:57;;;;;;;;;;;;;;;;;;5089979;28;19904;-53
2022/10/30 05:22:23;;;;;;;;;;;;;;;;;;5083664;28;19939;-53
2022/10/30 05:24:49;;;;;;;;;;;;;;;;;;5096000;28;20002;-50
2022/10/30 05:27:15;;;;;;;;;;;;;;;;;;5080130;28;19995;-52
2022/10/30 05:29:41;;;;;;;;;;;;;;;;;;5089989;28;20402;-53
2022/10/30 05:32:07;;;;;;;;;;;;;;;;;;5090039;28;19904;-52
2022/10/30 05:34:32;;;;;;;;;;;;;;;;;;5090063;28;19907;-52
2022/10/30 05:37:00;;;;;;;;;;;;;;;;;;5085390;28;20302;-52
2022/10/30 05:39:26;;;;;;;;;;;;;;;;;;5108824;28;19903;-51
2022/10/30 05:41:51;;;;;;;;;;;;;;;;;;5091198;28;20264;-52
2022/10/30 05:44:17;;;;;;;;;;;;;;;;;;5104724;28;19961;-49
2022/10/30 05:46:43;;;;;;;;;;;;;;;;;;5069794;28;20394;-50
2022/10/30 05:49:09;;;;;;;;;;;;;;;;;;5069824;28;19999;-51
2022/10/30 05:51:35;;;;;;;;;;;;;;;;;;5069741;28;19932;-51
2022/10/30 05:54:01;;;;;;;;;;;;;;;;;;5073832;28;20543;-50
2022/10/30 05:56:27;;;;;;;;;;;;;;;;;;5090665;28;19953;-53
2022/10/30 05:58:53;;;;;;;;;;;;;;;;;;5094654;28;19911;-51
2022/10/30 06:01:18;;;;;;;;;;;;;;;;;;5093504;28;20002;-51
2022/10/30 06:03:44;;;;;;;;;;;;;;;;;;5093854;28;19949;-52
2022/10/30 06:06:10;;;;;;;;;;;;;;;;;;5090694;28;19908;-53
2022/10/30 06:08:36;;;;;;;;;;;;;;;;;;5087433;28;19904;-52
2022/10/30 06:11:02;;;;;;;;;;;;;;;;;;5086550;28;20357;-53
2022/10/30 06:13:28;;;;;;;;;;;;;;;;;;5086820;28;19908;-51
2022/10/30 06:15:54;;;;;;;;;;;;;;;;;;5073972;28;20237;-53
2022/10/30 06:18:20;;;;;;;;;;;;;;;;;;5085442;28;19918;-53
2022/10/30 06:20:46;;;;;;;;;;;;;;;;;;5093400;28;19908;-52
2022/10/30 06:23:12;;;;;;;;;;;;;;;;;;5093459;28;19990;-53
2022/10/30 06:25:38;;;;;;;;;;;;;;;;;;5083351;28;20571;-49
2022/10/30 06:28:04;;;;;;;;;;;;;;;;;;5083844;28;19908;-53
2022/10/30 06:30:30;;;;;;;;;;;;;;;;;;5093446;28;19914;-51
2022/10/30 06:32:56;;;;;;;;;;;;;;;;;;5093980;28;20568;-50
2022/10/30 06:35:21;;;;;;;;;;;;;;;;;;5093311;28;19915;-50
2022/10/30 06:37:47;;;;;;;;;;;;;;;;;;5093328;28;20287;-53
2022/10/30 06:40:13;;;;;;;;;;;;;;;;;;5084351;28;19991;-52
2022/10/30 06:42:39;;;;;;;;;;;;;;;;;;5082217;28;20367;-53
2022/10/30 06:45:05;;;;;;;;;;;;;;;;;;5093143;28;19904;-52
2022/10/30 06:47:31;;;;;;;;;;;;;;;;;;5070862;28;19912;-53
2022/10/30 06:49:57;;;;;;;;;;;;;;;;;;5084495;28;19991;-52
2022/10/30 06:52:23;;;;;;;;;;;;;;;;;;5087215;28;19965;-53
2022/10/30 06:54:49;;;;;;;;;;;;;;;;;;5081849;28;19923;-52
2022/10/30 06:57:14;;;;;;;;;;;;;;;;;;5087634;28;19904;-50
2022/10/30 06:59:40;;;;;;;;;;;;;;;;;;5082688;28;19999;-53
2022/10/30 07:02:06;;;;;;;;;;;;;;;;;;5080292;28;19915;-52
2022/10/30 07:04:32;;;;;;;;;;;;;;;;;;5108796;28;19987;-52
2022/10/30 07:06:58;;;;;;;;;;;;;;;;;;5111944;28;19908;-54
2022/10/30 07:09:24;;;;;;;;;;;;;;;;;;5111328;28;20341;-52
2022/10/30 07:11:50;;;;;;;;;;;;;;;;;;5083591;28;20007;-53
2022/10/30 07:14:16;;;;;;;;;;;;;;;;;;5087983;28;19912;-53
2022/10/30 07:16:42;;;;;;;;;;;;;;;;;;5078745;28;19934;-50
2022/10/30 07:19:08;;;;;;;;;;;;;;;;;;5090713;28;19907;-52
2022/10/30 07:21:34;;;;;;;;;;;;;;;;;;5090406;28;19904;-51
2022/10/30 07:24:00;;;;;;;;;;;;;;;;;;5090609;28;19926;-50
2022/10/30 07:26:26;;;;;;;;;;;;;;;;;;5089327;28;19907;-50
2022/10/30 07:28:52;;;;;;;;;;;;;;;;;;5090587;28;19950;-49
2022/10/30 07:31:18;;;;;;;;;;;;;;;;;;5090304;28;19908;-52
2022/10/30 07:33:44;;;;;;;;;;;;;;;;;;5089444;28;20002;-52
2022/10/30 07:36:11;;;;;;;;;;;;;;;;;;5090282;28;19931;-49
2022/10/30 07:38:37;;;;;;;;;;;;;;;;;;5090475;28;19904;-52
2022/10/30 07:41:03;;;;;;;;;;;;;;;;;;5080165;28;19920;-49
2022/10/30 07:43:29;;;;;;;;;;;;;;;;;;5069961;28;19931;-50
2022/10/30 07:45:55;;;;;;;;;;;;;;;;;;5082458;28;19946;-52
2022/10/30 07:48:21;;;;;;;;;;;;;;;;;;5090063;28;19908;-52
2022/10/30 07:50:47;;;;;;;1.75;1.30;;;;;;;;;;5088393;28;20490;-50
2022/10/30 07:53:13;;;;;;;1.42;1.33;;;;;;;;;;5089679;28;20036;-51
2022/10/30 07:55:41;;;;;;;1.95;1.33;;;;;;;;;;5088138;28;20035;-50
2022/10/30 07:58:07;;;;;;;2.35;0.95;;;;;;;;;;5089591;28;20020;-49
2022/10/30 08:00:33;;;;;;;1.05;0.95;;;;;;;;;;5075258;28;20502;-52
2022/10/30 08:02:59;;;;;;;1.17;1.00;;;;;;;;;;5083143;28;20021;-49
2022/10/30 08:05:25;;;;;;;1.48;0.95;;;;;;;;;;5084065;28;20112;-50
2022/10/30 08:07:51;;;;;;;1.02;0.82;;;;;;;;;;5068663;28;20043;-50
2022/10/30 08:10:17;;;;;;;1.13;1.00;;;;;;;;;;5068906;28;20033;-49
2022/10/30 08:12:44;;;;;;;2.30;0.90;;;;;;;;;;5071851;28;20058;-51
2022/10/30 08:15:11;;;;;;;0.77;0.75;;;;;;;;;;5088756;28;20031;-51
2022/10/30 08:17:47;;;;;;;1.08;0.90;;;;;;;;;;5088274;28;20032;-51
2022/10/30 08:20:14;;;;;;;0.90;0.90;;;;;;;;;;5068150;28;20033;-53
2022/10/30 08:22:47;;;;;;;1.55;1.02;;;;;;;;;;5077759;28;20368;-53
2022/10/30 08:25:13;;;;;;;1.05;0.88;;;;;;;;;;5085835;28;20881;-51
2022/10/30 08:27:40;;;;;;;1.65;0.90;;;;;;;;;;5088992;28;20103;-52
2022/10/30 08:30:06;;;;;;;1.17;0.98;;;;;;;;;;5088595;28;20085;-54
2022/10/30 08:32:32;;;;;;;1.55;1.05;;;;;;;;;;5087423;28;20020;-51
2022/10/30 08:34:58;;;;;;;0.90;0.70;;;;;;;;;;5089131;28;20051;-53
2022/10/30 08:37:24;;;;;;;1.75;0.93;;;;;;;;;;5089386;28;20058;-54
2022/10/30 08:39:50;;;;;;;1.50;0.73;;;;;;;;;;5083518;28;20519;-53
2022/10/30 08:42:16;;;;;;;1.48;0.98;;;;;;;;;;5068378;28;20051;-52
2022/10/30 08:44:42;;;;;;;1.10;0.98;;;;;;;;;;5069998;28;20028;-52
2022/10/30 08:47:08;;;;;;;1.00;0.80;;;;;;;;;;5088741;28;20032;-51
2022/10/30 08:49:34;;;;;;;0.70;0.70;;;;;;;;;;5088235;28;20035;-51
2022/10/30 08:52:00;;;;;;;0.70;0.70;;;;;;;;;;5088629;28;20085;-52
2022/10/30 08:54:26;;;;;;;0.70;0.70;;;;;;;;;;5088205;28;20024;-52
2022/10/30 08:56:52;;;;;;;2.17;0.65;;;;;;;;;;5088459;28;20035;-53
2022/10/30 08:59:18;;;;;;;1.33;0.75;;;;;;;;;;5088303;28;20028;-52
2022/10/30 09:01:44;;;;;;;1.02;0.70;;;;;;;;;;5083983;28;20032;-53
2022/10/30 09:04:10;;;;;;;0.68;0.65;;;;;;;;;;5066596;28;20048;-52
2022/10/30 09:06:36;;;;;;;1.58;0.90;;;;;;;;;;5070705;28;20020;-52
2022/10/30 09:09:03;;;;;;;0.70;0.65;;;;;;;;;;5083625;28;20676;-49
2022/10/30 09:11:29;;;;;;;1.17;0.80;;;;;;;;;;5087596;28;20040;-49
2022/10/30 09:13:55;;;;;;;0.70;0.70;;;;;;;;;;5088658;28;20379;-51
2022/10/30 09:16:21;;;;;;;1.08;0.60;;;;;;;;;;5087657;28;20023;-49
2022/10/30 09:18:47;;;;;;;1.88;0.93;;;;;;;;;;5085089;28;20028;-49
2022/10/30 09:21:13;;;;;;;0.65;0.60;;;;;;;;;;5105928;28;20383;-50
2022/10/30 09:23:39;;;;;;;0.52;0.52;;;;;;;;;;5104011;28;20194;-49
2022/10/30 09:26:05;;;;;;;3.00;1.05;;;;;;;;;;5079346;28;20028;-50
2022/10/30 09:28:31;;;;;;;0.85;0.60;;;;;;;;;;5092699;28;20055;-49
2022/10/30 09:30:57;;;;;;;1.02;0.85;;;;;;;;;;5084840;28;20024;-50
2022/10/30 09:33:23;;;;;;;1.92;0.80;;;;;;;;;;5088320;28;20705;-49
2022/10/30 09:35:49;;;;;;;0.50;0.50;;;;;;;;;;5087424;28;20032;-49
2022/10/30 09:38:15;;;;;;;1.13;0.80;;;;;;;;;;5087776;28;20027;-49
2022/10/30 09:40:41;;;;;;;0.88;0.70;;;;;;;;;;5083275;28;20025;-50
2022/10/30 09:43:19;;;;;;;1.35;0.95;;;;;;;;;;5067540;28;20104;-50
2022/10/30 09:45:59;;;;;;;1.02;0.93;;;;;;;;;;5068202;28;20028;-53
2022/10/30 09:48:29;;;;;;;1.30;0.90;;;;;;;;;;5067984;28;20048;-49
2022/10/30 09:51:08;;;;;;;0.80;0.73;;;;;;;;;;5068014;28;20043;-50
2022/10/30 09:54:04;;;;;;;1.00;0.88;;;;;;;;;;5067269;28;20028;-50
2022/10/30 09:56:30;;;;;;;3.03;0.98;;;;;;;;;;4995798;28;20459;-53
2022/10/30 09:58:57;;;;;;;2.78;1.20;;;;;;;;;;5069596;28;20028;-50
2022/10/30 10:01:28;;;;;;;2.70;1.38;;;;;;;;;;5079828;28;20028;-53
2022/10/30 10:04:03;;;;;;;5.00;1.33;;;;;;;;;;5086793;28;20684;-50
2022/10/30 10:06:29;;;;;;;1.70;0.90;;;;;;;;;;5086683;28;20111;-50
2022/10/30 10:09:04;;;;;;;1.30;0.98;;;;;;;;;;5086872;28;20036;-51
2022/10/30 10:11:32;;;;;;;4.88;1.35;;;;;;;;;;5086337;28;20123;-52
2022/10/30 10:14:03;;;;;;;2.50;1.30;;;;;;;;;;5086736;28;20376;-49
2022/10/30 10:16:35;;;;;;;3.60;1.70;;;;;;;;;;5080477;28;20070;-53
2022/10/30 10:19:14;;;;;;;2.67;1.38;;;;;;;;;;5075954;28;20555;-51
2022/10/30 10:21:43;;;;;;;1.23;0.98;;;;;;;;;;5086397;28;20107;-51
2022/10/30 10:24:15;;;;;;;2.60;1.25;;;;;;;;;;5085634;28;20763;-50
2022/10/30 10:26:41;;;;;;;2.05;1.20;;;;;;;;;;5086293;28;20020;-53
2022/10/30 10:29:10;;;;;;;1.67;0.98;;;;;;;;;;5085615;28;20081;-53
2022/10/30 10:31:47;;;;;;;2.20;1.10;;;;;;;;;;5078898;28;20104;-53
2022/10/30 10:34:32;;;;;;;1.95;1.15;;;;;;;;;;5065552;28;20032;-53
2022/10/30 10:36:58;;;;;;;;;;;;;;;;;;5066446;28;20492;-53
2022/10/30 10:39:24;;;;;;;;;;;;;;;;;;5082241;28;20395;-51
2022/10/30 10:41:50;;;;;;;;;;;;;;;;;;5086706;28;19908;-50
2022/10/30 10:44:16;;;;;;;;;;;;;;;;;;5086684;28;19954;-53
2022/10/30 10:46:42;;;;;;;;;;;;;;;;;;5087535;28;19977;-52
2022/10/30 10:49:08;;;;;;;;;;;;;;;;;;5094921;28;19961;-53
2022/10/30 10:51:34;;;;;;;;;;;;;;;;;;5095717;28;19912;-54
2022/10/30 10:54:01;;;;;;;;;;;;;;;;;;5092506;28;19917;-50
2022/10/30 10:56:27;;;;;;;;;;;;;;;;;;5070583;28;19912;-53
2022/10/30 10:58:52;;;;;;;;;;;;;;;;;;5070344;28;19909;-53
2022/10/30 11:01:18;;;;;;;;;;;;;;;;;;5069708;28;19915;-52
2022/10/30 11:03:45;;;;;;;;;;;;;;;;;;5069579;28;19939;-52
2022/10/30 11:06:11;;;;;;;;;;;;;;;;;;5091573;28;19912;-51
2022/10/30 11:08:37;;;;;;;;;;;;;;;;;;5110215;28;19904;-53
2022/10/30 11:11:03;;;;;;;;;;;;;;;;;;5109992;28;19915;-51
2022/10/30 11:13:29;;;;;;;;;;;;;;;;;;5095156;28;19916;-49
2022/10/30 11:15:54;;;;;;;;;;;;;;;;;;5092238;28;20375;-53
2022/10/30 11:18:20;;;;;;;;;;;;;;;;;;5110166;28;19914;-51
2022/10/30 11:20:46;;;;;;;;;;;;;;;;;;5086207;28;19930;-52
2022/10/30 11:23:12;;;;;;;;;;;;;;;;;;5092664;28;19968;-53
2022/10/30 11:25:39;;;;;;;;;;;;;;;;;;5083663;28;19908;-51
2022/10/30 11:28:05;;;;;;;;;;;;;;;;;;5089454;28;19967;-52
2022/10/30 11:30:31;;;;;;;;;;;;;;;;;;5085950;28;19986;-53
2022/10/30 11:32:57;;;;;;;;;;;;;;;;;;5090134;28;20379;-51
2022/10/30 11:35:23;;;;;;;;;;;;;;;;;;5089891;28;19954;-54
2022/10/30 11:37:49;;;;;;;;;;;;;;;;;;5082799;28;19935;-51
2022/10/30 11:40:18;;;;;;;;;;;;;;;;;;5070287;28;19916;-51
2022/10/30 11:42:44;;;;;;;;;;;;;;;;;;5089689;28;19939;-52
2022/10/30 11:45:10;;;;;;;;;;;;;;;;;;5087602;28;19947;-52
2022/10/30 11:47:36;;;;;;;;;;;;;;;;;;5087818;28;19947;-53
2022/10/30 11:50:02;;;;;;;;;;;;;;;;;;5084621;28;19915;-53
2022/10/30 11:52:28;;;;;;;;;;;;;;;;;;5078082;28;19907;-52
2022/10/30 11:54:54;;;;;;;;;;;;;;;;;;5085091;28;19912;-53
2022/10/30 11:57:22;;;;;;;;;;;;;;;;;;5079768;28;19974;-54
2022/10/30 11:59:50;;;;;;;;;;;;;;;;;;5090127;28;19918;-51
2022/10/30 12:02:16;;;;;;;;;;;;;;;;;;5106531;28;19907;-51
2022/10/30 12:04:42;;;;;;;;;;;;;;;;;;5083978;28;19916;-49
2022/10/30 12:07:15;;;;;;;2.45;1.40;;;;;;;;;;5070282;28;20464;-52
2022/10/30 12:09:42;;;;;;;2.40;1.30;;;;;;;;;;5073640;28;20037;-50
2022/10/30 12:12:31;;;;;;;2.67;1.27;;;;;;;;;;5086819;28;20039;-50
2022/10/30 12:15:07;;;;;;;2.63;1.20;;;;;;;;;;5061163;28;20037;-50
2022/10/30 12:17:34;;;;;;;7.13;1.40;;;;;;;;;;5075563;28;20028;-49
2022/10/30 12:20:00;;;;;;;1.58;1.10;;;;;;;;;;5075272;28;20032;-51
2022/10/30 12:22:26;;;;;;;;;;;;;;;;;;5077696;28;20149;-49
2022/10/30 12:24:52;;;;;;;;;;;;;;;;;;5082505;28;20386;-52
2022/10/30 12:27:18;;;;;;;;;;;;;;;;;;5088250;28;19912;-54
2022/10/30 12:29:44;;;;;;;;;;;;;;;;;;5088304;28;20004;-51
2022/10/30 12:32:10;;;;;;;;;;;;;;;;;;5083109;28;19935;-50
2022/10/30 12:34:36;;;;;;;;;;;;;;;;;;5088183;28;19916;-49
2022/10/30 12:37:02;;;;;;;;;;;;;;;;;;5088102;28;19927;-50
2022/10/30 12:39:28;;;;;;;;;;;;;;;;;;5088320;28;20367;-50
2022/10/30 12:41:54;;;;;;;;;;;;;;;;;;5082604;28;19908;-50
2022/10/30 12:44:20;;;;;;;;;;;;;;;;;;5067529;28;19978;-50
2022/10/30 12:46:46;;;;;;;;;;;;;;;;;;5067520;28;19909;-51
2022/10/30 12:49:12;;;;;;;;;;;;;;;;;;5067798;28;20007;-49
2022/10/30 12:51:37;;;;;;;;;;;;;;;;;;5074991;28;19903;-52
2022/10/30 12:54:04;;;;;;;;;;;;;;;;;;5086240;28;19912;-49
2022/10/30 12:56:30;;;;;;;;;;;;;;;;;;5086581;28;19943;-49
2022/10/30 12:58:56;;;;;;;;;;;;;;;;;;5073880;28;20413;-50
2022/10/30 13:01:25;;;;;;;;;;;;;;;;;;5079197;28;19992;-54
2022/10/30 13:03:51;;;;;;;;;;;;;;;;;;5077192;28;19916;-49
2022/10/30 13:06:19;;;;;;;;;;;;;;;;;;5076203;28;19918;-51
2022/10/30 13:08:45;;;;;;;;;;;;;;;;;;5076658;28;19914;-40
2022/10/30 13:11:11;;;;;;;;;;;;;;;;;;5069196;28;20357;-40
2022/10/30 13:13:37;;;;;;;;;;;;;;;;;;5076925;28;19908;-40
2022/10/30 13:16:03;;;;;;;;;;;;;;;;;;5088587;28;19987;-40
2022/10/30 13:18:31;;;;;;;;;;;;;;;;;;5104194;28;19914;-40
2022/10/30 13:20:57;;;;;;;;;;;;;;;;;;5083126;28;19911;-40
2022/10/30 13:23:23;;;;;;;;;;;;;;;;;;5067735;28;19974;-41
2022/10/30 13:25:49;;;;;;;;;;;;;;;;;;5070922;28;19939;-41
2022/10/30 13:28:15;;;;;;;;;;;;;;;;;;5084226;28;19907;-41
2022/10/30 13:30:40;;;;;;;;;;;;;;;;;;5077656;28;19908;-41
2022/10/30 13:33:06;;;;;;;;;;;;;;;;;;5086363;28;19908;-41
2022/10/30 13:35:32;;;;;;;;;;;;;;;;;;5086396;28;19958;-40
2022/10/30 13:37:58;;;;;;;;;;;;;;;;;;5071106;28;19908;-41
2022/10/30 13:40:24;;;;;;;;;;;;;;;;;;5084108;28;19998;-41
2022/10/30 13:42:50;;;;;;;;;;;;;;;;;;5086043;28;19915;-40
2022/10/30 13:45:16;;;;;;;;;;;;;;;;;;5084426;28;19908;-40
2022/10/30 13:47:42;;;;;;;;;;;;;;;;;;5085516;28;19911;-40
2022/10/30 13:50:08;;;;;;;;;;;;;;;;;;5085983;28;19904;-41
2022/10/30 13:52:34;;;;;;;;;;;;;;;;;;5075513;28;19908;-40
2022/10/30 13:54:59;;;;;;;;;;;;;;;;;;5086590;28;20023;-40
2022/10/30 13:57:25;;;;;;;;;;;;;;;;;;5071700;28;19912;-40
2022/10/30 13:59:51;;;;;;;;;;;;;;;;;;5082979;28;20302;-40
2022/10/30 14:02:17;;;;;;;;;;;;;;;;;;5085652;28;19912;-40
2022/10/30 14:04:43;;;;;;;;;;;;;;;;;;5085653;28;20374;-40
2022/10/30 14:07:10;;;;;;;;;;;;;;;;;;5066675;28;19908;-40
2022/10/30 14:09:38;;;;;;;;;;;;;;;;;;5065815;28;19919;-40
2022/10/30 14:12:04;;;;;;;;;;;;;;;;;;5066738;28;19912;-41
2022/10/30 14:14:29;;;;;;;;;;;;;;;;;;5081926;28;19973;-41
2022/10/30 14:16:55;;;;;;;;;;;;;;;;;;5085456;28;19908;-40
2022/10/30 14:19:21;;;;;;;;;;;;;;;;;;5082793;28;19922;-40
2022/10/30 14:21:48;;;;;;;;;;;;;;;;;;5089531;28;19908;-40
2022/10/30 14:24:14;;;;;;;;;;;;;;;;;;5076303;28;20323;-40
2022/10/30 14:26:40;;;;;;;;;;;;;;;;;;5068931;28;20402;-41
2022/10/30 14:29:06;;;;;;;;;;;;;;;;;;5068966;28;19904;-40
2022/10/30 14:31:32;;;;;;;;;;;;;;;;;;5069247;28;19947;-41
2022/10/30 14:33:59;;;;;;;;;;;;;;;;;;5068789;28;19904;-41
2022/10/30 14:36:25;;;;;;;;;;;;;;;;;;5068860;28;19919;-41
2022/10/30 14:38:50;;;;;;;;;;;;;;;;;;5072256;28;19909;-40
2022/10/30 14:41:17;;;;;;;;;;;;;;;;;;5068652;28;20398;-40
2022/10/30 14:43:43;;;;;;;;;;;;;;;;;;5070564;28;19923;-41
2022/10/30 14:46:09;;;;;;;;;;;;;;;;;;5086432;28;19912;-41
2022/10/30 14:48:35;;;;;;;;;;;;;;;;;;5088574;28;20399;-41
2022/10/30 14:51:01;;;;;;;;;;;;;;;;;;5095138;28;20050;-41
2022/10/30 14:53:27;;;;;;;;;;;;;;;;;;5088982;28;20394;-41
2022/10/30 14:55:53;;;;;;;;;;;;;;;;;;5085438;28;19912;-42
2022/10/30 14:58:20;;;;;;;;;;;;;;;;;;5074060;28;19916;-41
2022/10/30 15:00:46;;;;;;;;;;;;;;;;;;5074314;28;19952;-41
2022/10/30 15:03:15;;;;;;;;;;;;;;;;;;5073324;28;20720;-41
2022/10/30 15:05:41;;;;;;;;;;;;;;;;;;5069821;28;19916;-41
2022/10/30 15:08:07;;;;;;;;;;;;;;;;;;5085499;28;20002;-41
2022/10/30 15:10:33;;;;;;;;;;;;;;;;;;5077177;28;20019;-41
2022/10/30 15:12:59;;;;;;;;;;;;;;;;;;5078829;28;19918;-41
2022/10/30 15:15:25;;;;;;;;;;;;;;;;;;5088237;28;19912;-41
2022/10/30 15:17:51;;;;;;;;;;;;;;;;;;5077760;28;19915;-41
2022/10/30 15:20:17;;;;;;;;;;;;;;;;;;5068406;28;20737;-42
2022/10/30 15:22:43;;;;;;;;;;;;;;;;;;5068391;28;19908;-41
2022/10/30 15:25:09;;;;;;;;;;;;;;;;;;5067747;28;19931;-41
2022/10/30 15:27:34;;;;;;;;;;;;;;;;;;5067978;28;20366;-41
2022/10/30 15:30:00;;;;;;;;;;;;;;;;;;5080848;28;19954;-41
2022/10/30 15:32:27;;;;;;;;;;;;;;;;;;5087490;28;19962;-41
2022/10/30 15:34:54;;;;;;;;;;;;;;;;;;5087574;28;19908;-41
2022/10/30 15:37:20;;;;;;;;;;;;;;;;;;5074153;28;19962;-41
2022/10/30 15:39:46;;;;;;;;;;;;;;;;;;5085410;28;19908;-41
2022/10/30 15:42:12;;;;;;;;;;;;;;;;;;5093599;28;20450;-41
2022/10/30 15:44:38;;;;;;;;;;;;;;;;;;5096028;28;19912;-41
2022/10/30 15:47:04;;;;;;;;;;;;;;;;;;5091110;28;19911;-42
2022/10/30 15:49:30;;;;;;;;;;;;;;;;;;5073125;28;19912;-41
2022/10/30 15:51:56;;;;;;;;;;;;;;;;;;5071966;28;19912;-41
2022/10/30 15:54:23;;;;;;;;;;;;;;;;;;5101907;28;19986;-41
2022/10/30 15:56:49;;;;;;;;;;;;;;;;;;5080301;28;19912;-41
2022/10/30 15:59:16;;;;;;;;;;;;;;;;;;5101592;28;20376;-41
2022/10/30 16:01:42;;;;;;;;;;;;;;;;;;5085031;28;19908;-41
2022/10/30 16:04:08;;;;;;;;;;;;;;;;;;5066987;28;19913;-41
2022/10/30 16:06:33;;;;;;;;;;;;;;;;;;5082898;28;19915;-41
2022/10/30 16:08:59;;;;;;;;;;;;;;;;;;5082272;28;20441;-41
2022/10/30 16:11:25;;;;;;;;;;;;;;;;;;5079837;28;19915;-41
2022/10/30 16:13:51;;;;;;;;;;;;;;;;;;5085856;28;20045;-41
2022/10/30 16:16:17;;;;;;;;;;;;;;;;;;5086364;28;20325;-41
2022/10/30 16:18:43;;;;;;;;;;;;;;;;;;5075772;28;19918;-41
2022/10/30 16:21:09;;;;;;;;;;;;;;;;;;5051109;28;19912;-41
2022/10/30 16:23:35;;;;;;;;;;;;;;;;;;5073623;28;20369;-41
2022/10/30 16:26:01;;;;;;;;;;;;;;;;;;5086573;28;19904;-41
2022/10/30 16:28:27;;;;;;;;;;;;;;;;;;5085222;28;19935;-40
2022/10/30 16:30:54;;;;;;;;;;;;;;;;;;5086193;28;19994;-41
2022/10/30 16:33:20;;;;;;;;;;;;;;;;;;5068093;28;19918;-41
2022/10/30 16:35:47;;;;;;;;;;;;;;;;;;5087074;28;19924;-41
2022/10/30 16:38:12;;;;;;;;;;;;;;;;;;5086748;28;20005;-40
2022/10/30 16:40:38;;;;;;;;;;;;;;;;;;5084113;28;20525;-40
2022/10/30 16:43:04;;;;;;;;;;;;;;;;;;5086579;28;19954;-40
2022/10/30 16:45:30;;;;;;;;;;;;;;;;;;5086060;28;20315;-41
2022/10/30 16:47:57;;;;;;;;;;;;;;;;;;5079585;28;20538;-41
2022/10/30 16:50:22;;;;;;;;;;;;;;;;;;5066227;28;20446;-41
2022/10/30 16:52:48;;;;;;;;;;;;;;;;;;5066169;28;19934;-41
2022/10/30 16:55:14;;;;;;;;;;;;;;;;;;5066468;28;19908;-41
2022/10/30 16:57:40;;;;;;;;;;;;;;;;;;5066050;28;19980;-41
2022/10/30 17:00:07;;;;;;;;;;;;;;;;;;5076072;28;19994;-41
2022/10/30 17:02:33;;;;;;;;;;;;;;;;;;5086048;28;19916;-41
2022/10/30 17:04:59;;;;;;;;;;;;;;;;;;5081099;28;19905;-41
2022/10/30 17:07:25;;;;;;;;;;;;;;;;;;5088309;28;19907;-41
2022/10/30 17:09:52;;;;;;;1.60;1.30;;;;;;;;;;5096721;28;20417;-40
2022/10/30 17:12:22;;;;;;;1.38;1.00;;;;;;;;;;5075589;28;20364;-40
2022/10/30 17:14:49;;;;;;;1.55;1.08;;;;;;;;;;5076953;28;20131;-41
2022/10/30 17:17:51;;;;;;;1.55;1.02;;;;;;;;;;5077885;28;20403;-40
2022/10/30 17:20:20;;;;;;;3.10;1.52;;;;;;;;;;4975770;28;20117;-40
2022/10/30 17:22:46;;;;;;;1.60;1.10;;;;;;;;;;5050099;28;20082;-41
2022/10/30 17:25:30;;;;;;;3.72;1.63;;;;;;;;;;5047010;28;20079;-41
2022/10/30 17:27:56;;;;;;;2.10;1.20;;;;;;;;;;5067622;28;20035;-40
2022/10/30 17:30:42;;;;;;;1.75;1.08;;;;;;;;;;5086751;28;20031;-41
2022/10/30 17:33:27;;;;;;;4.38;1.30;;;;;;;;;;5083581;28;20032;-40
2022/10/30 17:35:53;;;;;;;2.05;1.20;;;;;;;;;;5081290;28;20034;-41
2022/10/30 17:38:19;;;;;;;1.80;1.30;;;;;;;;;;5066627;28;20024;-40
2022/10/30 17:40:45;;;;;;;1.77;1.33;;;;;;;;;;5081507;28;20012;-40
2022/10/30 17:43:15;;;;;;;3.25;1.80;;;;;;;;;;5083677;28;20053;-41
2022/10/30 17:45:43;;;;;;;2.05;1.60;;;;;;;;;;5062825;28;20260;-40
2022/10/30 17:48:13;;;;;;;3.13;1.50;;;;;;;;;;5084199;28;20028;-41
2022/10/30 17:50:39;;;;;;;5.00;2.30;;;;;;;;;;5078366;28;20035;-40
2022/10/30 17:53:06;;;;;;;2.92;2.03;;;;;;;;;;5070560;28;20029;-41
2022/10/30 17:55:33;;;;;;;3.38;1.90;;;;;;;;;;5077286;28;20028;-40
2022/10/30 17:57:59;;;;;;;2.67;1.70;;;;;;;;;;5052792;28;20249;-40
2022/10/30 18:00:25;;;;;;;2.83;1.67;;;;;;;;;;5076691;28;20487;-40
2022/10/30 18:02:51;;;;;;;3.10;1.73;;;;;;;;;;5101522;28;20027;-40
2022/10/30 18:05:19;;;;;;;2.47;1.50;;;;;;;;;;5078098;28;20033;-40
2022/10/30 18:07:45;;;;;;;2.45;1.48;;;;;;;;;;5056535;28;20024;-40
2022/10/30 18:10:11;;;;;;;2.40;1.55;;;;;;;;;;5079955;28;20074;-40
2022/10/30 18:12:38;;;;;;;2.60;1.60;;;;;;;;;;5074176;28;20317;-40
2022/10/30 18:15:22;;;;;;;2.42;1.50;;;;;;;;;;5075069;28;20036;-41
2022/10/30 18:17:48;;;;;;;;;;;;;;;;;;5073197;28;20031;-41
2022/10/30 18:20:14;;;;;;;;;;;;;;;;;;5078979;28;19912;-41
2022/10/30 18:22:39;;;;;;;;;;;;;;;;;;5082840;28;19958;-41
2022/10/30 18:25:05;;;;;;;;;;;;;;;;;;5076119;28;20224;-41
2022/10/30 18:27:31;;;;;;;;;;;;;;;;;;5073726;28;19991;-40
2022/10/30 18:29:57;;;;;;;;;;;;;;;;;;5085753;28;19918;-41
2022/10/30 18:32:23;;;;;;;;;;;;;;;;;;5083529;28;19955;-40
2022/10/30 18:34:49;;;;;;;;;;;;;;;;;;5087621;28;19911;-40
2022/10/30 18:37:16;;;;;;;;;;;;;;;;;;5083529;28;19942;-40
2022/10/30 18:39:42;;;;;;;;;;;;;;;;;;5073167;28;20362;-40
2022/10/30 18:42:08;;;;;;;;;;;;;;;;;;5087612;28;19950;-40
2022/10/30 18:44:34;;;;;;;;;;;;;;;;;;5074143;28;19916;-40
2022/10/30 18:47:00;;;;;;;;;;;;;;;;;;5080950;28;19915;-40
2022/10/30 18:49:28;;;;;;;;;;;;;;;;;;5077820;28;19965;-40
2022/10/30 18:51:54;;;;;;;;;;;;;;;;;;5070390;28;19916;-41
2022/10/30 18:54:20;;;;;;;;;;;;;;;;;;5072224;28;20394;-41
2022/10/30 18:56:46;;;;;;;;;;;;;;;;;;5094042;28;19912;-41
2022/10/30 18:59:12;;;;;;;;;;;;;;;;;;5072163;28;19904;-40
2022/10/30 19:01:38;;;;;;;;;;;;;;;;;;5080812;28;19954;-40
2022/10/30 19:04:04;;;;;;;;;;;;;;;;;;5075594;28;19950;-41
2022/10/30 19:06:32;;;;;;;2.75;1.52;;;;;;;;;;5072499;28;20465;-41
2022/10/30 19:08:58;;;;;;;3.05;1.33;;;;;;;;;;5072375;28;20123;-41
2022/10/30 19:11:24;;;;;;;2.78;1.55;;;;;;;;;;5075082;28;20124;-41
2022/10/30 19:13:50;;;;;;;3.53;1.85;;;;;;;;;;5074704;28;20032;-41
2022/10/30 19:16:18;;;;;;;3.45;1.55;;;;;;;;;;5079549;28;20039;-40
2022/10/30 19:18:44;;;;;;;3.75;1.55;;;;;;;;;;5055375;28;20480;-40
2022/10/30 19:21:33;;;;;;;3.47;1.85;;;;;;;;;;5077804;28;20035;-40
2022/10/30 19:24:01;;;;;;;3.63;1.48;;;;;;;;;;5075457;28;20040;-41
2022/10/30 19:26:27;;;;;;;4.18;1.80;;;;;;;;;;5080478;28;20036;-40
2022/10/30 19:28:53;;;;;;;3.90;1.67;;;;;;;;;;5073885;28;20036;-40
2022/10/30 19:31:19;;;;;;;2.20;1.27;;;;;;;;;;5079036;28;20035;-40
2022/10/30 19:33:45;;;;;;;;;;;;;;;;;;5086231;28;20036;-40
2022/10/30 19:36:11;;;;;;;;;;;;;;;;;;5077447;28;19919;-40
2022/10/30 19:38:37;;;;;;;;;;;;;;;;;;5057117;28;20010;-40
2022/10/30 19:41:05;;;;;;;;;;;;;;;;;;5081744;28;19914;-40
2022/10/30 19:43:31;;;;;;;;;;;;;;;;;;5091900;28;20640;-40
2022/10/30 19:45:57;;;;;;;;;;;;;;;;;;5091228;28;19904;-40
2022/10/30 19:48:23;;;;;;;;;;;;;;;;;;5073216;28;19916;-40
2022/10/30 19:50:49;;;;;;;;;;;;;;;;;;5075630;28;19961;-40
2022/10/30 19:53:15;;;;;;;;;;;;;;;;;;5089821;28;20363;-40
2022/10/30 19:55:40;;;;;;;;;;;;;;;;;;5075891;28;19912;-40
2022/10/30 19:58:06;;;;;;;;;;;;;;;;;;5071304;28;19931;-40
2022/10/30 20:00:32;;;;;;;;;;;;;;;;;;5098759;28;19930;-40
2022/10/30 20:02:58;;;;;;;;;;;;;;;;;;5082590;28;19915;-40
2022/10/30 20:05:24;;;;;;;;;;;;;;;;;;5076794;28;19996;-40
2022/10/30 20:07:50;;;;;;;;;;;;;;;;;;5080393;28;19915;-40
2022/10/30 20:10:16;;;;;;;;;;;;;;;;;;5085826;28;19991;-40
2022/10/30 20:12:42;;;;;;;;;;;;;;;;;;5081464;28;19912;-40
2022/10/30 20:15:07;;;;;;;;;;;;;;;;;;5053896;28;19935;-40
2022/10/30 20:17:33;;;;;;;;;;;;;;;;;;5068387;28;19908;-40
2022/10/30 20:19:59;;;;;;;;;;;;;;;;;;5089007;28;20440;-40
2022/10/30 20:22:25;;;;;;;;;;;;;;;;;;5077237;28;19915;-40
2022/10/30 20:24:51;;;;;;;;;;;;;;;;;;5074140;28;19916;-40
2022/10/30 20:27:17;;;;;;;;;;;;;;;;;;5085806;28;19958;-40
2022/10/30 20:29:43;;;;;;;;;;;;;;;;;;5088984;28;19904;-40
2022/10/30 20:32:09;;;;;;;;;;;;;;;;;;5061313;28;19916;-40
2022/10/30 20:34:34;;;;;;;;;;;;;;;;;;5068636;28;19908;-40
2022/10/30 20:37:00;;;;;;;;;;;;;;;;;;5070835;28;19995;-40
2022/10/30 20:39:26;;;;;;;;;;;;;;;;;;5077991;28;19915;-40
2022/10/30 20:41:52;;;;;;;;;;;;;;;;;;5086432;28;20333;-40
2022/10/30 20:44:18;;;;;;;;;;;;;;;;;;5088842;28;19973;-40
2022/10/30 20:46:44;;;;;;;;;;;;;;;;;;5086281;28;20397;-40
2022/10/30 20:49:10;;;;;;;;;;;;;;;;;;5075567;28;19908;-40
2022/10/30 20:51:36;;;;;;;;;;;;;;;;;;5068381;28;19926;-40
2022/10/30 20:54:02;;;;;;;;;;;;;;;;;;5068876;28;19908;-40
2022/10/30 20:56:28;;;;;;;;;;;;;;;;;;5078083;28;19908;-40
2022/10/30 20:58:54;;;;;;;;;;;;;;;;;;5088418;28;20031;-40
2022/10/30 21:01:20;;;;;;;;;;;;;;;;;;5088409;28;20000;-40
2022/10/30 21:03:46;;;;;;;;;;;;;;;;;;5088109;28;20393;-40
2022/10/30 21:06:12;;;;;;;;;;;;;;;;;;5088409;28;19946;-40
2022/10/30 21:08:38;;;;;;;;;;;;;;;;;;5088137;28;20275;-40